createdAt,value
2023-05-19T00:01:30.981Z,100311.00
2023-05-19T00:03:04.864Z,100322.00
2023-05-19T00:04:40.430Z,100321.00
2023-05-19T00:06:13.793Z,100323.00
2023-05-19T00:07:52.817Z,100319.00
2023-05-19T00:09:26.630Z,100312.00
2023-05-19T00:11:00.659Z,100317.00
2023-05-19T00:12:34.387Z,100307.00
2023-05-19T00:14:10.532Z,100311.00
2023-05-19T00:15:44.339Z,100307.00
2023-05-19T00:17:18.264Z,100319.00
2023-05-19T00:18:51.656Z,100310.00
2023-05-19T00:20:24.915Z,100306.00
2023-05-19T00:21:57.083Z,100307.00
2023-05-19T00:23:31.543Z,100306.00
2023-05-19T00:25:06.208Z,100303.00
2023-05-19T00:26:39.552Z,100309.00
2023-05-19T00:28:12.205Z,100307.00
2023-05-19T00:29:45.354Z,100308.00
2023-05-19T00:31:18.590Z,100311.00
2023-05-19T00:32:52.505Z,100307.00
2023-05-19T00:34:24.861Z,100311.00
2023-05-19T00:35:57.992Z,100301.00
2023-05-19T00:37:31.098Z,100297.00
2023-05-19T00:39:04.701Z,100307.00
2023-05-19T00:40:37.884Z,100295.00
2023-05-19T00:42:11.082Z,100301.00
2023-05-19T00:43:43.340Z,100300.00
2023-05-19T00:45:16.475Z,100288.00
2023-05-19T00:46:49.604Z,100297.00
2023-05-19T00:48:22.925Z,100295.00
2023-05-19T00:49:56.025Z,100301.00
2023-05-19T00:51:31.306Z,100299.00
2023-05-19T00:53:03.842Z,100297.00
2023-05-19T00:54:38.369Z,100302.00
2023-05-19T00:56:11.745Z,100301.00
2023-05-19T00:57:45.951Z,100288.00
2023-05-19T00:59:19.247Z,100289.00
2023-05-19T01:00:52.774Z,100301.00
2023-05-19T01:02:26.151Z,100298.00
2023-05-19T01:03:59.094Z,100303.00
2023-05-19T01:05:32.690Z,100294.00
2023-05-19T01:07:06.222Z,100293.00
2023-05-19T01:08:40.283Z,100295.00
2023-05-19T01:10:15.552Z,100290.00
2023-05-19T01:11:47.807Z,100288.00
2023-05-19T01:13:21.134Z,100292.00
2023-05-19T01:14:54.445Z,100285.00
2023-05-19T01:16:36.470Z,100293.00
2023-05-19T01:18:16.586Z,100283.00
2023-05-19T01:20:06.538Z,100285.00
2023-05-19T01:22:15.431Z,100287.00
2023-05-19T01:24:03.720Z,100285.00
2023-05-19T01:26:12.164Z,100287.00
2023-05-19T01:28:31.899Z,100292.00
2023-05-19T01:30:28.173Z,100291.00
2023-05-19T01:32:04.986Z,100286.00
2023-05-19T01:33:42.113Z,100289.00
2023-05-19T01:35:16.919Z,100284.00
2023-05-19T01:36:52.218Z,100290.00
2023-05-19T01:38:28.647Z,100285.00
2023-05-19T01:40:02.229Z,100281.00
2023-05-19T01:41:39.069Z,100282.00
2023-05-19T01:43:17.498Z,100282.00
2023-05-19T01:44:51.621Z,100292.00
2023-05-19T01:46:27.388Z,100283.00
2023-05-19T01:48:04.281Z,100294.00
2023-05-19T01:49:37.921Z,100283.00
2023-05-19T01:51:11.110Z,100285.00
2023-05-19T01:52:44.506Z,100277.00
2023-05-19T01:54:17.626Z,100288.00
2023-05-19T01:55:54.382Z,100288.00
2023-05-19T01:57:44.019Z,100286.00
2023-05-19T01:59:42.021Z,100283.00
2023-05-19T02:01:34.989Z,100285.00
2023-05-19T02:03:31.315Z,100283.00
2023-05-19T02:05:14.440Z,100282.00
2023-05-19T02:07:02.071Z,100295.00
2023-05-19T02:08:44.845Z,100292.00
2023-05-19T02:10:26.058Z,100293.00
2023-05-19T02:12:09.762Z,100294.00
2023-05-19T02:13:47.657Z,100296.00
2023-05-19T02:15:26.945Z,100281.00
2023-05-19T02:17:00.681Z,100296.00
2023-05-19T02:18:36.901Z,100293.00
2023-05-19T02:20:11.754Z,100290.00
2023-05-19T02:21:43.934Z,100292.00
2023-05-19T02:23:17.280Z,100294.00
2023-05-19T02:24:51.602Z,100287.00
2023-05-19T02:26:24.888Z,100292.00
2023-05-19T02:28:00.223Z,100292.00
2023-05-19T02:29:36.486Z,100299.00
2023-05-19T02:31:10.084Z,100286.00
2023-05-19T02:32:46.638Z,100291.00
2023-05-19T02:34:21.181Z,100287.00
2023-05-19T02:35:54.443Z,100288.00
2023-05-19T02:37:28.345Z,100290.00
2023-05-19T02:39:01.986Z,100290.00
2023-05-19T02:40:35.403Z,100284.00
2023-05-19T02:42:08.776Z,100287.00
2023-05-19T02:43:42.216Z,100285.00
2023-05-19T02:45:15.772Z,100293.00
2023-05-19T02:46:48.911Z,100293.00
2023-05-19T02:48:22.163Z,100291.00
2023-05-19T02:49:55.638Z,100287.00
2023-05-19T02:51:28.784Z,100297.00
2023-05-19T02:53:01.140Z,100295.00
2023-05-19T02:54:36.034Z,100283.00
2023-05-19T02:56:09.224Z,100287.00
2023-05-19T02:57:42.302Z,100282.00
2023-05-19T02:59:15.693Z,100275.00
2023-05-19T03:00:48.902Z,100277.00
2023-05-19T03:02:21.189Z,100279.00
2023-05-19T03:03:54.484Z,100282.00
2023-05-19T03:05:29.944Z,100277.00
2023-05-19T03:07:03.192Z,100279.00
2023-05-19T03:08:36.767Z,100277.00
2023-05-19T03:10:10.641Z,100286.00
2023-05-19T03:11:43.829Z,100285.00
2023-05-19T03:13:17.753Z,100273.00
2023-05-19T03:14:51.073Z,100269.00
2023-05-19T03:16:23.308Z,100270.00
2023-05-19T03:17:56.703Z,100274.00
2023-05-19T03:19:32.388Z,100272.00
2023-05-19T03:21:06.923Z,100267.00
2023-05-19T03:22:40.089Z,100272.00
2023-05-19T03:24:13.206Z,100269.00
2023-05-19T03:25:46.355Z,100262.00
2023-05-19T03:27:18.493Z,100272.00
2023-05-19T03:28:51.888Z,100268.00
2023-05-19T03:30:25.565Z,100270.00
2023-05-19T03:32:09.374Z,100271.00
2023-05-19T03:33:43.180Z,100266.00
2023-05-19T03:35:16.516Z,100266.00
2023-05-19T03:36:50.981Z,100261.00
2023-05-19T03:38:24.461Z,100276.00
2023-05-19T03:40:04.910Z,100273.00
2023-05-19T03:41:38.365Z,100268.00
2023-05-19T03:43:11.484Z,100278.00
2023-05-19T03:44:52.770Z,100277.00
2023-05-19T03:46:25.146Z,100273.00
2023-05-19T03:48:15.800Z,100276.00
2023-05-19T03:50:12.119Z,100283.00
2023-05-19T03:52:07.268Z,100282.00
2023-05-19T03:53:54.798Z,100287.00
2023-05-19T03:55:29.752Z,100290.00
2023-05-19T03:57:03.258Z,100281.00
2023-05-19T03:58:36.908Z,100276.00
2023-05-19T04:00:12.246Z,100284.00
2023-05-19T04:01:46.415Z,100285.00
2023-05-19T04:03:19.774Z,100284.00
2023-05-19T04:04:53.731Z,100281.00
2023-05-19T04:06:26.941Z,100288.00
2023-05-19T04:08:00.910Z,100288.00
2023-05-19T04:09:35.237Z,100283.00
2023-05-19T04:11:08.464Z,100282.00
2023-05-19T04:12:42.308Z,100283.00
2023-05-19T04:14:15.971Z,100280.00
2023-05-19T04:15:50.241Z,100283.00
2023-05-19T04:17:26.306Z,100289.00
2023-05-19T04:19:00.837Z,100278.00
2023-05-19T04:20:33.352Z,100283.00
2023-05-19T04:22:06.804Z,100286.00
2023-05-19T04:23:41.592Z,100282.00
2023-05-19T04:25:13.922Z,100280.00
2023-05-19T04:26:47.305Z,100288.00
2023-05-19T04:28:21.591Z,100281.00
2023-05-19T04:29:55.998Z,100270.00
2023-05-19T04:31:29.847Z,100285.00
2023-05-19T04:33:04.874Z,100282.00
2023-05-19T04:34:40.062Z,100277.00
2023-05-19T04:36:14.356Z,100274.00
2023-05-19T04:37:49.369Z,100275.00
2023-05-19T04:39:27.012Z,100274.00
2023-05-19T04:41:01.682Z,100282.00
2023-05-19T04:42:35.312Z,100281.00
2023-05-19T04:44:09.902Z,100283.00
2023-05-19T04:45:44.037Z,100285.00
2023-05-19T04:47:21.340Z,100287.00
2023-05-19T04:48:56.977Z,100286.00
2023-05-19T04:50:32.708Z,100283.00
2023-05-19T04:52:11.653Z,100285.00
2023-05-19T04:53:46.492Z,100277.00
2023-05-19T04:55:21.070Z,100284.00
2023-05-19T04:56:55.416Z,100275.00
2023-05-19T04:58:28.914Z,100285.00
2023-05-19T05:00:02.076Z,100280.00
2023-05-19T05:01:43.321Z,100279.00
2023-05-19T05:03:19.293Z,100282.00
2023-05-19T05:04:54.552Z,100267.00
2023-05-19T05:06:28.514Z,100272.00
2023-05-19T05:08:02.058Z,100277.00
2023-05-19T05:09:39.570Z,100273.00
2023-05-19T05:11:15.617Z,100270.00
2023-05-19T05:12:49.022Z,100278.00
2023-05-19T05:14:22.967Z,100272.00
2023-05-19T05:15:56.204Z,100267.00
2023-05-19T05:17:30.282Z,100269.00
2023-05-19T05:19:04.319Z,100275.00
2023-05-19T05:20:38.751Z,100281.00
2023-05-19T05:22:13.106Z,100281.00
2023-05-19T05:23:47.561Z,100282.00
2023-05-19T05:25:22.310Z,100279.00
2023-05-19T05:26:57.249Z,100278.00
2023-05-19T05:28:31.310Z,100281.00
2023-05-19T05:30:05.593Z,100290.00
2023-05-19T05:31:56.567Z,100273.00
2023-05-19T05:33:30.481Z,100285.00
2023-05-19T05:35:04.194Z,100279.00
2023-05-19T05:36:37.928Z,100273.00
2023-05-19T05:38:12.938Z,100273.00
2023-05-19T05:39:46.937Z,100286.00
2023-05-19T05:41:21.673Z,100281.00
2023-05-19T05:42:58.994Z,100276.00
2023-05-19T05:44:35.669Z,100275.00
2023-05-19T05:46:10.627Z,100279.00
2023-05-19T05:47:44.517Z,100271.00
2023-05-19T05:49:18.741Z,100266.00
2023-05-19T05:50:54.556Z,100263.00
2023-05-19T05:52:33.458Z,100259.00
2023-05-19T05:54:08.840Z,100257.00
2023-05-19T05:55:46.141Z,100254.00
2023-05-19T05:57:20.158Z,100258.00
2023-05-19T05:58:54.825Z,100265.00
2023-05-19T06:00:28.232Z,100261.00
2023-05-19T06:02:01.941Z,100266.00
2023-05-19T06:03:38.050Z,100266.00
2023-05-19T06:05:12.731Z,100262.00
2023-05-19T06:06:46.463Z,100254.00
2023-05-19T06:08:24.091Z,100260.00
2023-05-19T06:09:57.673Z,100263.00
2023-05-19T06:11:32.044Z,100250.00
2023-05-19T06:13:06.329Z,100261.00
2023-05-19T06:14:40.846Z,100257.00
2023-05-19T06:16:16.714Z,100260.00
2023-05-19T06:17:52.884Z,100261.00
2023-05-19T06:19:26.238Z,100258.00
2023-05-19T06:20:59.629Z,100250.00
2023-05-19T06:22:32.907Z,100258.00
2023-05-19T06:24:07.794Z,100251.00
2023-05-19T06:25:40.882Z,100246.00
2023-05-19T06:27:14.718Z,100245.00
2023-05-19T06:28:47.908Z,100256.00
2023-05-19T06:30:22.713Z,100245.00
2023-05-19T06:32:16.310Z,100250.00
2023-05-19T06:33:49.581Z,100248.00
2023-05-19T06:35:22.949Z,100240.00
2023-05-19T06:36:56.138Z,100233.00
2023-05-19T06:38:29.528Z,100239.00
2023-05-19T06:40:03.813Z,100233.00
2023-05-19T06:41:36.979Z,100232.00
2023-05-19T06:43:10.535Z,100237.00
2023-05-19T06:44:59.527Z,100225.00
2023-05-19T06:46:35.077Z,100233.00
2023-05-19T06:48:08.392Z,100231.00
2023-05-19T06:49:42.555Z,100232.00
2023-05-19T06:51:21.455Z,100233.00
2023-05-19T06:52:58.369Z,100224.00
2023-05-19T06:54:31.769Z,100226.00
2023-05-19T06:56:05.399Z,100226.00
2023-05-19T06:57:40.636Z,100216.00
2023-05-19T06:59:14.254Z,100223.00
2023-05-19T07:00:47.371Z,100230.00
2023-05-19T07:02:24.012Z,100231.00
2023-05-19T07:03:57.302Z,100231.00
2023-05-19T07:05:30.772Z,100220.00
2023-05-19T07:07:06.164Z,100227.00
2023-05-19T07:08:39.986Z,100225.00
2023-05-19T07:10:14.523Z,100219.00
2023-05-19T07:11:48.222Z,100225.00
2023-05-19T07:13:21.440Z,100217.00
2023-05-19T07:14:54.857Z,100218.00
2023-05-19T07:16:29.662Z,100223.00
2023-05-19T07:18:04.357Z,100216.00
2023-05-19T07:19:37.532Z,100226.00
2023-05-19T07:21:10.688Z,100214.00
2023-05-19T07:22:44.353Z,100218.00
2023-05-19T07:24:17.841Z,100211.00
2023-05-19T07:25:56.311Z,100218.00
2023-05-19T07:27:29.611Z,100207.00
2023-05-19T07:29:02.836Z,100212.00
2023-05-19T07:30:36.058Z,100213.00
2023-05-19T07:32:09.225Z,100213.00
2023-05-19T07:33:43.871Z,100212.00
2023-05-19T07:35:17.256Z,100212.00
2023-05-19T07:36:51.393Z,100213.00
2023-05-19T07:38:24.546Z,100207.00
2023-05-19T07:39:57.801Z,100212.00
2023-05-19T07:41:30.973Z,100214.00
2023-05-19T07:43:03.327Z,100212.00
2023-05-19T07:44:36.741Z,100212.00
2023-05-19T07:46:09.912Z,100213.00
2023-05-19T07:47:43.051Z,100220.00
2023-05-19T07:49:17.574Z,100210.00
2023-05-19T07:50:51.568Z,100217.00
2023-05-19T07:52:24.841Z,100214.00
2023-05-19T07:53:58.220Z,100212.00
2023-05-19T07:55:31.474Z,100211.00
2023-05-19T07:57:05.038Z,100205.00
2023-05-19T07:58:38.206Z,100201.00
2023-05-19T08:00:13.339Z,100203.00
2023-05-19T08:01:47.260Z,100206.00
2023-05-19T08:03:20.698Z,100207.00
2023-05-19T08:04:56.528Z,100205.00
2023-05-19T08:06:32.312Z,100196.00
2023-05-19T08:08:06.588Z,100198.00
2023-05-19T08:09:39.673Z,100203.00
2023-05-19T08:11:12.899Z,100199.00
2023-05-19T08:12:46.042Z,100198.00
2023-05-19T08:14:19.457Z,100195.00
2023-05-19T08:15:54.300Z,100191.00
2023-05-19T08:17:27.544Z,100197.00
2023-05-19T08:19:02.526Z,100191.00
2023-05-19T08:20:37.507Z,100193.00
2023-05-19T08:22:10.749Z,100200.00
2023-05-19T08:23:43.844Z,100196.00
2023-05-19T08:25:17.104Z,100203.00
2023-05-19T08:26:50.647Z,100187.00
2023-05-19T08:28:23.763Z,100191.00
2023-05-19T08:29:57.287Z,100187.00
2023-05-19T08:31:30.474Z,100184.00
2023-05-19T08:33:03.777Z,100185.00
2023-05-19T08:34:36.969Z,100179.00
2023-05-19T08:36:11.663Z,100187.00
2023-05-19T08:37:44.774Z,100186.00
2023-05-19T08:39:19.548Z,100182.00
2023-05-19T08:40:52.845Z,100182.00
2023-05-19T08:42:26.072Z,100179.00
2023-05-19T08:43:59.620Z,100180.00
2023-05-19T08:45:34.828Z,100168.00
2023-05-19T08:47:13.660Z,100167.00
2023-05-19T08:48:50.199Z,100172.00
2023-05-19T08:50:33.496Z,100167.00
2023-05-19T08:52:21.999Z,100171.00
2023-05-19T08:54:05.501Z,100175.00
2023-05-19T08:55:49.362Z,100166.00
2023-05-19T08:57:24.505Z,100167.00
2023-05-19T08:59:00.385Z,100168.00
2023-05-19T09:00:35.052Z,100159.00
2023-05-19T09:02:12.019Z,100171.00
2023-05-19T09:03:46.197Z,100165.00
2023-05-19T09:05:20.854Z,100166.00
2023-05-19T09:06:54.282Z,100151.00
2023-05-19T09:08:28.987Z,100157.00
2023-05-19T09:10:02.294Z,100147.00
2023-05-19T09:11:37.551Z,100158.00
2023-05-19T09:13:11.032Z,100157.00
2023-05-19T09:14:44.705Z,100161.00
2023-05-19T09:16:18.276Z,100152.00
2023-05-19T09:17:51.473Z,100161.00
2023-05-19T09:19:29.374Z,100148.00
2023-05-19T09:21:03.427Z,100156.00
2023-05-19T09:22:45.117Z,100159.00
2023-05-19T09:24:19.853Z,100147.00
2023-05-19T09:25:54.303Z,100154.00
2023-05-19T09:27:27.480Z,100148.00
2023-05-19T09:29:00.594Z,100143.00
2023-05-19T09:30:34.830Z,100132.00
2023-05-19T09:32:08.322Z,100126.00
2023-05-19T09:33:45.913Z,100139.00
2023-05-19T09:35:20.517Z,100141.00
2023-05-19T09:36:54.762Z,100145.00
2023-05-19T09:38:28.504Z,100139.00
2023-05-19T09:40:03.177Z,100143.00
2023-05-19T09:41:36.290Z,100150.00
2023-05-19T09:43:10.859Z,100132.00
2023-05-19T09:44:44.868Z,100135.00
2023-05-19T09:46:18.073Z,100129.00
2023-05-19T09:47:51.223Z,100133.00
2023-05-19T09:49:29.403Z,100132.00
2023-05-19T09:51:03.449Z,100130.00
2023-05-19T09:52:38.420Z,100130.00
2023-05-19T09:54:16.862Z,100127.00
2023-05-19T09:55:57.448Z,100126.00
2023-05-19T09:57:36.885Z,100127.00
2023-05-19T09:59:10.131Z,100124.00
2023-05-19T10:00:44.157Z,100118.00
2023-05-19T10:02:21.599Z,100126.00
2023-05-19T10:03:55.126Z,100126.00
2023-05-19T10:05:30.460Z,100123.00
2023-05-19T10:07:07.021Z,100130.00
2023-05-19T10:08:42.508Z,100140.00
2023-05-19T10:10:17.042Z,100130.00
2023-05-19T10:11:52.982Z,100129.00
2023-05-19T10:13:28.006Z,100131.00
2023-05-19T10:15:01.469Z,100131.00
2023-05-19T10:16:36.192Z,100126.00
2023-05-19T10:18:10.636Z,100124.00
2023-05-19T10:19:46.489Z,100121.00
2023-05-19T10:21:19.877Z,100121.00
2023-05-19T10:22:53.131Z,100121.00
2023-05-19T10:24:26.436Z,100110.00
2023-05-19T10:26:04.033Z,100108.00
2023-05-19T10:27:44.316Z,100113.00
2023-05-19T10:29:23.972Z,100100.00
2023-05-19T10:31:02.443Z,100112.00
2023-05-19T10:32:38.303Z,100117.00
2023-05-19T10:34:37.382Z,100115.00
2023-05-19T10:36:35.576Z,100125.00
2023-05-19T10:38:34.388Z,100107.00
2023-05-19T10:40:13.541Z,100123.00
2023-05-19T10:42:03.999Z,100110.00
2023-05-19T10:43:55.306Z,100108.00
2023-05-19T10:45:33.784Z,100116.00
2023-05-19T10:47:08.247Z,100122.00
2023-05-19T10:48:46.990Z,100117.00
2023-05-19T10:50:21.883Z,100112.00
2023-05-19T10:51:57.826Z,100114.00
2023-05-19T10:53:34.843Z,100112.00
2023-05-19T10:55:17.594Z,100112.00
2023-05-19T10:56:50.795Z,100108.00
2023-05-19T10:58:52.046Z,100096.00
2023-05-19T11:00:31.188Z,100090.00
2023-05-19T11:02:09.370Z,100099.00
2023-05-19T11:03:52.016Z,100105.00
2023-05-19T11:05:30.797Z,100094.00
2023-05-19T11:07:04.573Z,100103.00
2023-05-19T11:08:38.370Z,100106.00
2023-05-19T11:10:12.611Z,100099.00
2023-05-19T11:11:49.051Z,100095.00
2023-05-19T11:13:23.003Z,100095.00
2023-05-19T11:15:00.221Z,100081.00
2023-05-19T11:16:33.812Z,100096.00
2023-05-19T11:18:07.187Z,100097.00
2023-05-19T11:19:41.047Z,100093.00
2023-05-19T11:21:14.278Z,100095.00
2023-05-19T11:23:05.764Z,100088.00
2023-05-19T11:24:45.750Z,100090.00
2023-05-19T11:26:42.901Z,100092.00
2023-05-19T11:28:19.332Z,100088.00
2023-05-19T11:29:53.813Z,100082.00
2023-05-19T11:31:28.766Z,100084.00
2023-05-19T11:33:02.527Z,100083.00
2023-05-19T11:34:38.468Z,100089.00
2023-05-19T11:36:13.446Z,100089.00
2023-05-19T11:37:48.937Z,100083.00
2023-05-19T11:39:22.277Z,100079.00
2023-05-19T11:40:55.908Z,100079.00
2023-05-19T11:42:29.179Z,100079.00
2023-05-19T11:44:02.417Z,100084.00
2023-05-19T11:45:36.579Z,100080.00
2023-05-19T11:47:11.882Z,100085.00
2023-05-19T11:48:48.632Z,100078.00
2023-05-19T11:50:22.349Z,100065.00
2023-05-19T11:51:56.281Z,100076.00
2023-05-19T11:53:33.228Z,100064.00
2023-05-19T11:55:09.664Z,100076.00
2023-05-19T11:56:43.867Z,100065.00
2023-05-19T11:58:17.417Z,100062.00
2023-05-19T11:59:53.194Z,100077.00
2023-05-19T12:01:26.968Z,100081.00
2023-05-19T12:03:01.691Z,100076.00
2023-05-19T12:04:35.040Z,100068.00
2023-05-19T12:06:09.103Z,100069.00
2023-05-19T12:07:44.028Z,100058.00
2023-05-19T12:09:17.444Z,100060.00
2023-05-19T12:10:51.413Z,100052.00
2023-05-19T12:12:24.885Z,100057.00
2023-05-19T12:14:00.531Z,100053.00
2023-05-19T12:15:34.384Z,100052.00
2023-05-19T12:17:16.435Z,100054.00
2023-05-19T12:18:51.052Z,100056.00
2023-05-19T12:20:24.900Z,100048.00
2023-05-19T12:21:58.087Z,100052.00
2023-05-19T12:23:31.567Z,100041.00
2023-05-19T12:25:05.889Z,100042.00
2023-05-19T12:26:39.247Z,100030.00
2023-05-19T12:28:12.461Z,100034.00
2023-05-19T12:29:52.682Z,100035.00
2023-05-19T12:31:25.882Z,100023.00
2023-05-19T12:32:59.484Z,100030.00
2023-05-19T12:34:36.736Z,100038.00
2023-05-19T12:36:13.268Z,100037.00
2023-05-19T12:37:49.059Z,100036.00
2023-05-19T12:39:22.467Z,100039.00
2023-05-19T12:40:59.677Z,100033.00
2023-05-19T12:42:33.497Z,100032.00
2023-05-19T12:44:16.339Z,100026.00
2023-05-19T12:45:49.643Z,100023.00
2023-05-19T12:47:22.979Z,100023.00
2023-05-19T12:49:01.456Z,100022.00
2023-05-19T12:50:38.669Z,100025.00
2023-05-19T12:52:23.189Z,100011.00
2023-05-19T12:53:56.644Z,100014.00
2023-05-19T12:55:31.028Z,100019.00
2023-05-19T12:57:07.065Z,100021.00
2023-05-19T12:58:41.073Z,100030.00
2023-05-19T13:00:17.805Z,100029.00
2023-05-19T13:01:58.411Z,100019.00
2023-05-19T13:03:31.809Z,100027.00
2023-05-19T13:05:05.613Z,100018.00
2023-05-19T13:06:41.676Z,100020.00
2023-05-19T13:08:16.579Z,100024.00
2023-05-19T13:09:49.821Z,100029.00
2023-05-19T13:11:22.921Z,100027.00
2023-05-19T13:13:16.133Z,100019.00
2023-05-19T13:15:09.448Z,100015.00
2023-05-19T13:17:01.259Z,100016.00
2023-05-19T13:18:37.475Z,100012.00
2023-05-19T13:20:14.442Z,100023.00
2023-05-19T13:21:50.491Z,100022.00
2023-05-19T13:23:23.850Z,100020.00
2023-05-19T13:24:59.765Z,100008.00
2023-05-19T13:26:32.996Z,100031.00
2023-05-19T13:28:06.895Z,100013.00
2023-05-19T13:29:40.155Z,100018.00
2023-05-19T13:31:13.516Z,100003.00
2023-05-19T13:32:47.019Z,100015.00
2023-05-19T13:34:20.232Z,100010.00
2023-05-19T13:35:53.362Z,100013.00
2023-05-19T13:37:28.248Z,100005.00
2023-05-19T13:39:01.794Z,100001.00
2023-05-19T13:40:35.563Z,100017.00
2023-05-19T13:42:09.585Z,100013.00
2023-05-19T13:43:42.716Z,100011.00
2023-05-19T13:45:18.323Z,100013.00
2023-05-19T13:46:52.442Z,100009.00
2023-05-19T13:48:25.773Z,100009.00
2023-05-19T13:49:58.934Z,100013.00
2023-05-19T13:51:32.110Z,100007.00
2023-05-19T13:53:06.700Z,100013.00
2023-05-19T13:54:39.776Z,100005.00
2023-05-19T13:56:12.917Z,100002.00
2023-05-19T13:57:45.184Z,100007.00
2023-05-19T13:59:18.725Z,99998.00
2023-05-19T14:00:54.572Z,99997.00
2023-05-19T14:02:27.879Z,99989.00
2023-05-19T14:04:01.421Z,99996.00
2023-05-19T14:05:35.483Z,99986.00
2023-05-19T14:07:11.215Z,99993.00
2023-05-19T14:08:46.656Z,99990.00
2023-05-19T14:10:20.192Z,99991.00
2023-05-19T14:11:53.497Z,99988.00
2023-05-19T14:13:34.182Z,100003.00
2023-05-19T14:15:11.619Z,99984.00
2023-05-19T14:16:44.940Z,99986.00
2023-05-19T14:18:20.836Z,99995.00
2023-05-19T14:19:54.055Z,99994.00
2023-05-19T14:21:28.169Z,99998.00
2023-05-19T14:23:04.303Z,99992.00
2023-05-19T14:24:41.403Z,99994.00
2023-05-19T14:26:14.637Z,99985.00
2023-05-19T14:27:50.830Z,99982.00
2023-05-19T14:29:24.006Z,99981.00
2023-05-19T14:30:57.306Z,99988.00
2023-05-19T14:32:30.795Z,99990.00
2023-05-19T14:34:05.050Z,99984.00
2023-05-19T14:35:38.433Z,99990.00
2023-05-19T14:37:14.757Z,99993.00
2023-05-19T14:38:48.171Z,99981.00
2023-05-19T14:40:22.762Z,99992.00
2023-05-19T14:41:56.348Z,99996.00
2023-05-19T14:43:29.708Z,99998.00
2023-05-19T14:45:02.939Z,99997.00
2023-05-19T14:46:36.695Z,99985.00
2023-05-19T14:48:11.689Z,99997.00
2023-05-19T14:49:45.016Z,99995.00
2023-05-19T14:51:18.352Z,100000.00
2023-05-19T14:52:51.705Z,99997.00
2023-05-19T14:54:24.974Z,100008.00
2023-05-19T14:55:59.697Z,100001.00
2023-05-19T14:57:33.107Z,100002.00
2023-05-19T14:59:06.365Z,100005.00
2023-05-19T15:00:39.564Z,100006.00
2023-05-19T15:02:12.778Z,100000.00
2023-05-19T15:03:46.196Z,100006.00
2023-05-19T15:05:19.703Z,99993.00
2023-05-19T15:07:05.905Z,99984.00
2023-05-19T15:08:43.265Z,99993.00
2023-05-19T15:10:16.645Z,99987.00
2023-05-19T15:11:51.334Z,99989.00
2023-05-19T15:13:26.182Z,99986.00
2023-05-19T15:14:59.574Z,99989.00
2023-05-19T15:16:32.949Z,99986.00
2023-05-19T15:18:06.230Z,99990.00
2023-05-19T15:19:40.872Z,99985.00
2023-05-19T15:21:14.081Z,99982.00
2023-05-19T15:22:47.429Z,99987.00
2023-05-19T15:24:20.694Z,99985.00
2023-05-19T15:25:53.975Z,99982.00
2023-05-19T15:27:28.481Z,99984.00
2023-05-19T15:29:01.603Z,99979.00
2023-05-19T15:30:35.077Z,99987.00
2023-05-19T15:32:09.772Z,99990.00
2023-05-19T15:33:42.759Z,99990.00
2023-05-19T15:35:16.372Z,99984.00
2023-05-19T15:36:49.523Z,99994.00
2023-05-19T15:38:22.734Z,99994.00
2023-05-19T15:39:55.983Z,99991.00
2023-05-19T15:41:29.278Z,99985.00
2023-05-19T15:43:03.809Z,99989.00
2023-05-19T15:44:36.903Z,99984.00
2023-05-19T15:46:12.995Z,99987.00
2023-05-19T15:47:46.288Z,99976.00
2023-05-19T15:49:19.521Z,99978.00
2023-05-19T15:50:52.773Z,99979.00
2023-05-19T15:52:26.259Z,99974.00
2023-05-19T15:53:59.498Z,99976.00
2023-05-19T15:55:32.627Z,99977.00
2023-05-19T15:57:06.355Z,99971.00
2023-05-19T15:58:41.226Z,99970.00
2023-05-19T16:00:15.938Z,99963.00
2023-05-19T16:01:50.579Z,99973.00
2023-05-19T16:03:26.205Z,99966.00
2023-05-19T16:04:59.509Z,99966.00
2023-05-19T16:06:32.749Z,99959.00
2023-05-19T16:08:08.512Z,99963.00
2023-05-19T16:09:42.150Z,99960.00
2023-05-19T16:11:20.555Z,99970.00
2023-05-19T16:12:54.415Z,99963.00
2023-05-19T16:14:31.003Z,99962.00
2023-05-19T16:16:04.535Z,99960.00
2023-05-19T16:17:40.314Z,99947.00
2023-05-19T16:19:13.786Z,99948.00
2023-05-19T16:20:47.174Z,99951.00
2023-05-19T16:22:24.434Z,99954.00
2023-05-19T16:23:57.654Z,99968.00
2023-05-19T16:25:30.943Z,99959.00
2023-05-19T16:27:04.829Z,99958.00
2023-05-19T16:28:40.508Z,99961.00
2023-05-19T16:30:16.289Z,99954.00
2023-05-19T16:31:49.554Z,99960.00
2023-05-19T16:33:22.863Z,99954.00
2023-05-19T16:34:56.147Z,99955.00
2023-05-19T16:36:29.395Z,99959.00
2023-05-19T16:38:02.661Z,99956.00
2023-05-19T16:39:37.656Z,99956.00
2023-05-19T16:41:12.824Z,99955.00
2023-05-19T16:42:49.575Z,99948.00
2023-05-19T16:44:25.592Z,99944.00
2023-05-19T16:46:00.259Z,99944.00
2023-05-19T16:47:33.616Z,99942.00
2023-05-19T16:49:07.429Z,99938.00
2023-05-19T16:50:40.673Z,99941.00
2023-05-19T16:52:13.804Z,99946.00
2023-05-19T16:53:47.098Z,99952.00
2023-05-19T16:55:20.506Z,99941.00
2023-05-19T16:56:53.908Z,99940.00
2023-05-19T16:58:28.806Z,99950.00
2023-05-19T17:00:03.645Z,99938.00
2023-05-19T17:01:38.662Z,99933.00
2023-05-19T17:03:12.545Z,99940.00
2023-05-19T17:04:46.089Z,99952.00
2023-05-19T17:06:21.531Z,99945.00
2023-05-19T17:07:57.246Z,99942.00
2023-05-19T17:09:30.559Z,99937.00
2023-05-19T17:11:03.746Z,99940.00
2023-05-19T17:12:37.358Z,99946.00
2023-05-19T17:14:10.673Z,99941.00
2023-05-19T17:15:43.918Z,99945.00
2023-05-19T17:17:18.614Z,99942.00
2023-05-19T17:18:51.901Z,99940.00
2023-05-19T17:20:25.132Z,99950.00
2023-05-19T17:21:58.436Z,99937.00
2023-05-19T17:23:31.762Z,99939.00
2023-05-19T17:25:05.503Z,99947.00
2023-05-19T17:26:38.805Z,99942.00
2023-05-19T17:28:12.088Z,99946.00
2023-05-19T17:29:47.499Z,99942.00
2023-05-19T17:31:20.778Z,99936.00
2023-05-19T17:32:57.219Z,99938.00
2023-05-19T17:34:31.028Z,99942.00
2023-05-19T17:36:04.625Z,99937.00
2023-05-19T17:37:37.855Z,99946.00
2023-05-19T17:39:11.108Z,99945.00
2023-05-19T17:40:45.422Z,99941.00
2023-05-19T17:42:18.613Z,99950.00
2023-05-19T17:43:51.785Z,99945.00
2023-05-19T17:45:26.400Z,99943.00
2023-05-19T17:47:00.297Z,99943.00
2023-05-19T17:48:36.101Z,99950.00
2023-05-19T17:50:10.434Z,99949.00
2023-05-19T17:51:44.393Z,99952.00
2023-05-19T17:53:18.431Z,99951.00
2023-05-19T17:54:52.555Z,99949.00
2023-05-19T17:56:27.659Z,99953.00
2023-05-19T17:58:01.784Z,99955.00
2023-05-19T17:59:36.045Z,99958.00
2023-05-19T18:01:10.288Z,99962.00
2023-05-19T18:02:44.828Z,99965.00
2023-05-19T18:04:20.656Z,99961.00
2023-05-19T18:05:54.651Z,99972.00
2023-05-19T18:07:30.171Z,99969.00
2023-05-19T18:09:08.808Z,99960.00
2023-05-19T18:10:43.809Z,99962.00
2023-05-19T18:12:17.501Z,99962.00
2023-05-19T18:13:50.808Z,99967.00
2023-05-19T18:15:24.941Z,99963.00
2023-05-19T18:16:58.293Z,99969.00